< < Back
Terminal Aerodrome Forecast


Current Version              Previous Versions:   1  2  3  4  5  6  7  8  9  

Terminal Aerodrome Forecast

531
FTUS42 KTAE 292300
TAFABY
TAF
KABY 292334Z 3000/3024 VRB04KT P6SM FEW060 SCT250=



Latest METAR

802
SAUS70 KWBC 300500 RRK
MTRABY
METAR KABY 300453Z 00000KT 10SM CLR 22/16 A3001 RMK AO2 SLP160 T02170161
403280200


USA.gov is the U.S. government's official web portal to all federal, state and local government web resources and services.